createdAt,value
2018-05-15T00:00:17.016Z,0
2018-05-15T00:00:43.190Z,0
2018-05-15T00:01:09.394Z,0
2018-05-15T00:01:35.622Z,0
2018-05-15T00:02:01.818Z,0
2018-05-15T00:02:28.201Z,0
2018-05-15T00:02:54.427Z,0
2018-05-15T00:03:20.667Z,0
2018-05-15T00:03:46.812Z,0
2018-05-15T00:04:12.967Z,0
2018-05-15T00:04:39.210Z,0
2018-05-15T00:05:05.277Z,0
2018-05-15T00:05:31.430Z,0
2018-05-15T00:05:57.691Z,0
2018-05-15T00:06:23.824Z,0
2018-05-15T00:06:50.019Z,0
2018-05-15T00:07:16.287Z,0
2018-05-15T00:07:42.486Z,0
2018-05-15T00:08:08.658Z,0
2018-05-15T00:08:34.840Z,0
2018-05-15T00:09:01.139Z,0
2018-05-15T00:09:27.308Z,0
2018-05-15T00:09:53.467Z,0
2018-05-15T00:10:19.682Z,0
2018-05-15T00:10:45.840Z,0
2018-05-15T00:11:12.011Z,0
2018-05-15T00:11:38.228Z,0
2018-05-15T00:12:04.414Z,0
2018-05-15T00:12:30.672Z,0
2018-05-15T00:12:56.871Z,0
2018-05-15T00:13:23.012Z,0
2018-05-15T00:13:49.228Z,0
2018-05-15T00:14:15.355Z,0
2018-05-15T00:14:41.508Z,0
2018-05-15T00:15:07.798Z,0
2018-05-15T00:15:33.955Z,0
2018-05-15T00:16:00.111Z,0
2018-05-15T00:16:26.258Z,0
2018-05-15T00:16:52.427Z,0
2018-05-15T00:17:18.592Z,0
2018-05-15T00:17:44.799Z,0
2018-05-15T00:18:10.981Z,0
2018-05-15T00:18:37.111Z,0
2018-05-15T00:19:03.264Z,0
2018-05-15T00:19:29.408Z,0
2018-05-15T00:19:55.538Z,0
2018-05-15T00:20:21.710Z,0
2018-05-15T00:20:47.861Z,0
2018-05-15T00:21:14.056Z,0
2018-05-15T00:21:40.236Z,0
2018-05-15T00:22:06.368Z,0
2018-05-15T00:22:32.535Z,0
2018-05-15T00:22:58.809Z,0
2018-05-15T00:23:24.978Z,0
2018-05-15T00:23:51.287Z,0
2018-05-15T00:24:17.606Z,0
2018-05-15T00:24:43.710Z,0
2018-05-15T00:25:09.941Z,0
2018-05-15T00:25:36.142Z,0
2018-05-15T00:26:02.445Z,0
2018-05-15T00:26:28.611Z,0
2018-05-15T00:26:54.739Z,0
2018-05-15T00:27:20.865Z,0
2018-05-15T00:27:47.065Z,0
2018-05-15T00:28:13.191Z,0
2018-05-15T00:28:39.415Z,0
2018-05-15T00:29:05.567Z,0
2018-05-15T00:29:31.962Z,0
2018-05-15T00:29:58.087Z,0
2018-05-15T00:30:24.268Z,0
2018-05-15T00:30:50.506Z,0
2018-05-15T00:31:16.686Z,0
2018-05-15T00:31:43.044Z,0
2018-05-15T00:32:09.215Z,0
2018-05-15T00:32:35.364Z,0
2018-05-15T00:33:01.548Z,0
2018-05-15T00:33:27.807Z,0
2018-05-15T00:33:53.878Z,0
2018-05-15T00:34:20.028Z,0
2018-05-15T00:34:46.192Z,0
2018-05-15T00:35:12.345Z,0
2018-05-15T00:35:38.471Z,0
2018-05-15T00:36:04.622Z,0
2018-05-15T00:36:30.748Z,0
2018-05-15T00:36:56.890Z,0
2018-05-15T00:37:23.043Z,0
2018-05-15T00:37:49.169Z,0
2018-05-15T00:38:15.320Z,0
2018-05-15T00:38:41.467Z,0
2018-05-15T00:39:07.615Z,0
2018-05-15T00:39:33.777Z,0
2018-05-15T00:39:59.865Z,0
2018-05-15T00:40:25.991Z,0
2018-05-15T00:40:52.137Z,0
2018-05-15T00:41:18.263Z,0
2018-05-15T00:41:44.388Z,0
2018-05-15T00:42:10.513Z,0
2018-05-15T00:42:36.641Z,0
2018-05-15T00:43:02.786Z,0
2018-05-15T00:43:28.917Z,0
2018-05-15T00:43:55.056Z,0
2018-05-15T00:44:21.393Z,0
2018-05-15T00:44:47.323Z,0
2018-05-15T00:45:13.446Z,0
2018-05-15T00:45:39.572Z,0
2018-05-15T00:46:05.720Z,0
2018-05-15T00:46:31.845Z,0
2018-05-15T00:46:57.993Z,0
2018-05-15T00:47:24.141Z,0
2018-05-15T00:47:50.287Z,0
2018-05-15T00:48:16.417Z,0
2018-05-15T00:48:42.539Z,0
2018-05-15T00:49:08.687Z,0
2018-05-15T00:49:34.820Z,0
2018-05-15T00:50:01.077Z,0
2018-05-15T00:50:27.125Z,0
2018-05-15T00:50:53.297Z,0
2018-05-15T00:51:19.437Z,0
2018-05-15T00:51:45.575Z,0
2018-05-15T00:52:11.722Z,0
2018-05-15T00:52:37.862Z,0
2018-05-15T00:53:03.997Z,0
2018-05-15T00:53:30.133Z,0
2018-05-15T00:53:56.285Z,0
2018-05-15T00:54:22.427Z,0
2018-05-15T00:54:48.566Z,0
2018-05-15T00:55:14.705Z,0
2018-05-15T00:55:40.843Z,0
2018-05-15T00:56:06.984Z,0
2018-05-15T00:56:33.145Z,0
2018-05-15T00:56:59.294Z,0
2018-05-15T00:57:25.428Z,0
2018-05-15T00:57:51.571Z,0
2018-05-15T00:58:17.716Z,0
2018-05-15T00:58:43.856Z,0
2018-05-15T00:59:09.995Z,0
2018-05-15T00:59:36.157Z,0
2018-05-15T01:00:02.300Z,0
2018-05-15T01:00:28.439Z,0
2018-05-15T01:00:54.576Z,0
2018-05-15T01:01:20.718Z,0
2018-05-15T01:01:46.861Z,0
2018-05-15T01:02:12.983Z,0
2018-05-15T01:02:39.126Z,0
2018-05-15T01:03:05.292Z,0
2018-05-15T01:03:31.428Z,0
2018-05-15T01:03:57.564Z,0
2018-05-15T01:04:23.735Z,0
2018-05-15T01:04:49.895Z,0
2018-05-15T01:05:16.064Z,0
2018-05-15T01:05:42.195Z,0
2018-05-15T01:06:08.367Z,0
2018-05-15T01:06:34.508Z,0
2018-05-15T01:07:00.664Z,0
2018-05-15T01:07:26.803Z,0
2018-05-15T01:07:52.949Z,0
2018-05-15T01:08:19.085Z,0
2018-05-15T01:08:45.225Z,0
2018-05-15T01:09:11.366Z,0
2018-05-15T01:09:37.506Z,0
2018-05-15T01:10:03.653Z,0
2018-05-15T01:10:29.782Z,0
2018-05-15T01:10:55.947Z,0
2018-05-15T01:11:22.084Z,0
2018-05-15T01:11:48.223Z,0
2018-05-15T01:12:14.373Z,0
2018-05-15T01:12:40.537Z,0
2018-05-15T01:13:06.678Z,0
2018-05-15T01:13:32.813Z,0
2018-05-15T01:13:58.956Z,0
2018-05-15T01:14:25.101Z,0
2018-05-15T01:14:51.262Z,0
2018-05-15T01:15:17.403Z,0
2018-05-15T01:15:43.542Z,0
2018-05-15T01:16:09.708Z,0
2018-05-15T01:16:35.843Z,0
2018-05-15T01:17:01.982Z,0
2018-05-15T01:17:28.175Z,0
2018-05-15T01:17:54.314Z,0
2018-05-15T01:18:20.455Z,0
2018-05-15T01:18:46.599Z,0
2018-05-15T01:19:12.755Z,0
2018-05-15T01:19:38.896Z,0
2018-05-15T01:20:05.041Z,0
2018-05-15T01:20:31.212Z,0
2018-05-15T01:20:57.371Z,0
2018-05-15T01:21:23.519Z,0
2018-05-15T01:21:49.685Z,0
2018-05-15T01:22:15.830Z,0
2018-05-15T01:22:41.969Z,0
2018-05-15T01:23:08.111Z,0
2018-05-15T01:23:34.249Z,0
2018-05-15T01:24:00.390Z,0
2018-05-15T01:24:26.554Z,0
2018-05-15T01:24:52.689Z,0
2018-05-15T01:25:18.831Z,0
2018-05-15T01:25:44.976Z,0
2018-05-15T01:26:11.109Z,0
2018-05-15T01:26:37.251Z,0
2018-05-15T01:27:03.395Z,0
2018-05-15T01:27:29.558Z,0
2018-05-15T01:27:55.742Z,0
2018-05-15T01:28:21.879Z,0
2018-05-15T01:28:48.029Z,0
2018-05-15T01:29:14.193Z,0
2018-05-15T01:29:40.327Z,0
2018-05-15T01:30:06.474Z,0
2018-05-15T01:30:32.655Z,0
2018-05-15T01:30:58.798Z,0
2018-05-15T01:31:24.959Z,0
2018-05-15T01:31:51.120Z,0
2018-05-15T01:32:17.288Z,0
2018-05-15T01:32:43.447Z,0
2018-05-15T01:33:09.593Z,0
2018-05-15T01:33:35.757Z,0
2018-05-15T01:34:01.894Z,0
2018-05-15T01:34:28.033Z,0
2018-05-15T01:34:54.172Z,0
2018-05-15T01:35:20.315Z,0
2018-05-15T01:35:46.481Z,0
2018-05-15T01:36:12.648Z,0
2018-05-15T01:36:38.783Z,0
2018-05-15T01:37:04.923Z,0
2018-05-15T01:37:31.065Z,0
2018-05-15T01:37:57.209Z,0
2018-05-15T01:38:23.372Z,0
2018-05-15T01:38:49.529Z,0
2018-05-15T01:39:15.662Z,0
2018-05-15T01:39:41.831Z,0
2018-05-15T01:40:07.962Z,0
2018-05-15T01:40:34.115Z,0
2018-05-15T01:41:00.240Z,0
2018-05-15T01:41:26.376Z,0
2018-05-15T01:41:52.519Z,0
2018-05-15T01:42:18.694Z,0
2018-05-15T01:42:44.832Z,0
2018-05-15T01:43:10.990Z,0
2018-05-15T01:43:37.125Z,0
2018-05-15T01:44:03.265Z,0
2018-05-15T01:44:29.404Z,0
2018-05-15T01:44:55.537Z,0
2018-05-15T01:45:21.675Z,0
2018-05-15T01:45:47.823Z,0
2018-05-15T01:46:13.960Z,0
2018-05-15T01:46:40.100Z,0
2018-05-15T01:47:06.272Z,0
2018-05-15T01:47:32.406Z,0
2018-05-15T01:47:58.551Z,0
2018-05-15T01:48:24.695Z,0
2018-05-15T01:48:50.830Z,0
2018-05-15T01:49:16.968Z,0
2018-05-15T01:49:43.111Z,0
2018-05-15T01:50:09.257Z,0
2018-05-15T01:50:35.395Z,0
2018-05-15T01:51:01.535Z,0
2018-05-15T01:51:27.705Z,0
2018-05-15T01:51:53.842Z,0
2018-05-15T01:52:19.978Z,0
2018-05-15T01:52:46.142Z,0
2018-05-15T01:53:12.320Z,0
2018-05-15T01:53:38.464Z,0
2018-05-15T01:54:04.602Z,0
2018-05-15T01:54:30.761Z,0
2018-05-15T01:54:56.939Z,0
2018-05-15T01:55:23.082Z,0
2018-05-15T01:55:49.220Z,0
2018-05-15T01:56:15.388Z,0
2018-05-15T01:56:41.529Z,0
2018-05-15T01:57:07.662Z,0
2018-05-15T01:57:33.810Z,0
2018-05-15T01:57:59.952Z,0
2018-05-15T01:58:26.092Z,0
2018-05-15T01:58:52.224Z,0
2018-05-15T01:59:18.367Z,0
2018-05-15T01:59:44.504Z,0
2018-05-15T02:00:10.653Z,0
2018-05-15T02:00:36.787Z,0
2018-05-15T02:01:02.950Z,0
2018-05-15T02:01:29.109Z,0
2018-05-15T02:01:55.252Z,0
2018-05-15T02:02:21.408Z,0
2018-05-15T02:02:47.550Z,0
2018-05-15T02:03:13.713Z,0
2018-05-15T02:03:39.853Z,0
2018-05-15T02:04:06.022Z,0
2018-05-15T02:04:32.177Z,0
2018-05-15T02:04:58.344Z,0
2018-05-15T02:05:24.484Z,0
2018-05-15T02:05:50.624Z,0
2018-05-15T02:06:16.765Z,0
2018-05-15T02:06:42.905Z,0
2018-05-15T02:07:09.047Z,0
2018-05-15T02:07:35.190Z,0
2018-05-15T02:08:01.323Z,0
2018-05-15T02:08:27.456Z,0
2018-05-15T02:08:53.600Z,0
2018-05-15T02:09:19.731Z,0
2018-05-15T02:09:45.880Z,0
2018-05-15T02:10:12.017Z,0
2018-05-15T02:10:38.148Z,0
2018-05-15T02:11:04.291Z,0
2018-05-15T02:11:30.429Z,0
2018-05-15T02:11:56.568Z,0
2018-05-15T02:12:22.706Z,0
2018-05-15T02:12:48.848Z,0
2018-05-15T02:13:14.985Z,0
2018-05-15T02:13:41.114Z,0
2018-05-15T02:14:07.259Z,0
2018-05-15T02:14:33.396Z,0
2018-05-15T02:14:59.544Z,0
2018-05-15T02:15:25.675Z,0
2018-05-15T02:15:51.820Z,0
2018-05-15T02:16:17.982Z,0
2018-05-15T02:16:44.131Z,0
2018-05-15T02:17:10.270Z,0
2018-05-15T02:17:36.403Z,0
2018-05-15T02:18:02.551Z,0
2018-05-15T02:18:28.710Z,0
2018-05-15T02:18:54.882Z,0
2018-05-15T02:19:21.070Z,0
2018-05-15T02:19:47.214Z,0
2018-05-15T02:20:13.356Z,0
2018-05-15T02:20:39.497Z,0
2018-05-15T02:21:05.636Z,0
2018-05-15T02:21:31.769Z,0
2018-05-15T02:21:57.914Z,0
2018-05-15T02:22:24.081Z,0
2018-05-15T02:22:50.224Z,0
2018-05-15T02:23:16.359Z,0
2018-05-15T02:23:42.504Z,0
2018-05-15T02:24:08.644Z,0
2018-05-15T02:24:34.785Z,0
2018-05-15T02:25:00.927Z,0
2018-05-15T02:25:27.085Z,0
2018-05-15T02:25:53.225Z,0
2018-05-15T02:26:19.363Z,0
2018-05-15T02:26:45.499Z,0
2018-05-15T02:27:11.641Z,0
2018-05-15T02:27:37.805Z,0
2018-05-15T02:28:03.946Z,0
2018-05-15T02:28:30.087Z,0
2018-05-15T02:28:56.224Z,0
2018-05-15T02:29:22.371Z,0
2018-05-15T02:29:48.505Z,0
2018-05-15T02:30:14.643Z,0
2018-05-15T02:30:40.786Z,0
2018-05-15T02:31:06.927Z,0
2018-05-15T02:31:33.114Z,0
2018-05-15T02:31:59.253Z,0
2018-05-15T02:32:25.422Z,0
2018-05-15T02:32:51.577Z,0
2018-05-15T02:33:17.760Z,0
2018-05-15T02:33:43.941Z,0
2018-05-15T02:34:10.133Z,0
2018-05-15T02:34:36.293Z,0
2018-05-15T02:35:02.478Z,0
2018-05-15T02:35:28.634Z,0
2018-05-15T02:35:54.785Z,0
2018-05-15T02:36:20.981Z,0
2018-05-15T02:36:47.140Z,0
2018-05-15T02:37:13.309Z,0
2018-05-15T02:37:39.474Z,0
2018-05-15T02:38:05.632Z,0
2018-05-15T02:38:31.826Z,0
2018-05-15T02:38:57.975Z,0
2018-05-15T02:39:24.126Z,0
2018-05-15T02:39:50.322Z,0
2018-05-15T02:40:16.509Z,0
2018-05-15T02:40:42.672Z,0
2018-05-15T02:41:08.856Z,0
2018-05-15T02:41:35.046Z,0
2018-05-15T02:42:01.191Z,0
2018-05-15T02:42:27.355Z,0
2018-05-15T02:42:53.503Z,0
2018-05-15T02:43:19.672Z,0
2018-05-15T02:43:45.820Z,0
2018-05-15T02:44:12.011Z,0
2018-05-15T02:44:38.149Z,0
2018-05-15T02:45:04.341Z,0
2018-05-15T02:45:30.479Z,0
2018-05-15T02:45:56.627Z,0
2018-05-15T02:46:22.758Z,0
2018-05-15T02:46:48.900Z,0
2018-05-15T02:47:15.061Z,0
2018-05-15T02:47:41.240Z,0
2018-05-15T02:48:07.400Z,0
2018-05-15T02:48:33.541Z,0
2018-05-15T02:48:59.755Z,0
2018-05-15T02:49:25.944Z,0
2018-05-15T02:49:52.102Z,0
2018-05-15T02:50:18.249Z,0
2018-05-15T02:50:44.402Z,0
2018-05-15T02:51:10.534Z,0
2018-05-15T02:51:36.707Z,0
2018-05-15T02:52:02.913Z,0
2018-05-15T02:52:29.054Z,0
2018-05-15T02:52:55.244Z,0
2018-05-15T02:53:21.387Z,0
2018-05-15T02:53:47.591Z,0
2018-05-15T02:54:13.737Z,4
2018-05-15T02:54:39.923Z,4
2018-05-15T02:55:06.062Z,4
2018-05-15T02:55:32.192Z,4
2018-05-15T02:55:58.339Z,4
2018-05-15T02:56:24.465Z,4
2018-05-15T02:56:50.617Z,4
2018-05-15T02:57:16.762Z,0
2018-05-15T02:57:42.908Z,0
2018-05-15T02:58:09.064Z,0
2018-05-15T02:58:35.223Z,4
2018-05-15T02:59:01.390Z,4
2018-05-15T02:59:27.550Z,4
2018-05-15T02:59:53.752Z,4
2018-05-15T03:00:20.035Z,4
2018-05-15T03:00:46.294Z,4
2018-05-15T03:01:12.583Z,4
2018-05-15T03:01:38.792Z,4
2018-05-15T03:02:05.209Z,4
2018-05-15T03:02:31.354Z,8
2018-05-15T03:02:57.775Z,4
2018-05-15T03:03:23.942Z,4
2018-05-15T03:03:50.174Z,8
2018-05-15T03:04:16.423Z,8
2018-05-15T03:04:42.751Z,4
2018-05-15T03:05:09.086Z,8
2018-05-15T03:05:35.350Z,8
2018-05-15T03:06:01.491Z,12
2018-05-15T03:06:27.654Z,8
2018-05-15T03:06:53.813Z,12
2018-05-15T03:07:20.001Z,8
2018-05-15T03:07:46.165Z,12
2018-05-15T03:08:12.302Z,12
2018-05-15T03:08:38.449Z,12
2018-05-15T03:09:04.606Z,16
2018-05-15T03:09:30.782Z,16
2018-05-15T03:09:56.981Z,12
2018-05-15T03:10:23.147Z,16
2018-05-15T03:10:49.336Z,16
2018-05-15T03:11:15.525Z,16
2018-05-15T03:11:41.689Z,20
2018-05-15T03:12:07.796Z,20
2018-05-15T03:12:33.938Z,20
2018-05-15T03:13:00.128Z,24
2018-05-15T03:13:26.297Z,24
2018-05-15T03:13:52.474Z,24
2018-05-15T03:14:18.606Z,28
2018-05-15T03:14:44.798Z,28
2018-05-15T03:15:10.932Z,28
2018-05-15T03:15:37.069Z,32
2018-05-15T03:16:03.214Z,36
2018-05-15T03:16:29.379Z,36
2018-05-15T03:16:55.536Z,40
2018-05-15T03:17:21.698Z,44
2018-05-15T03:17:47.865Z,44
2018-05-15T03:18:14.005Z,48
2018-05-15T03:18:40.148Z,52
2018-05-15T03:19:06.281Z,52
2018-05-15T03:19:32.425Z,56
2018-05-15T03:19:58.562Z,56
2018-05-15T03:20:24.707Z,64
2018-05-15T03:20:50.844Z,64
2018-05-15T03:21:16.980Z,68
2018-05-15T03:21:43.123Z,72
2018-05-15T03:22:09.261Z,76
2018-05-15T03:22:35.402Z,80
2018-05-15T03:23:01.541Z,84
2018-05-15T03:23:27.733Z,88
2018-05-15T03:23:53.864Z,88
2018-05-15T03:24:20.013Z,96
2018-05-15T03:24:46.148Z,104
2018-05-15T03:25:12.291Z,104
2018-05-15T03:25:38.457Z,108
2018-05-15T03:26:04.591Z,116
2018-05-15T03:26:30.737Z,120
2018-05-15T03:26:56.879Z,128
2018-05-15T03:27:23.017Z,136
2018-05-15T03:27:49.156Z,140
2018-05-15T03:28:15.286Z,148
2018-05-15T03:28:41.454Z,156
2018-05-15T03:29:07.594Z,160
2018-05-15T03:29:33.734Z,168
2018-05-15T03:29:59.875Z,176
2018-05-15T03:30:26.040Z,184
2018-05-15T03:30:52.199Z,196
2018-05-15T03:31:18.364Z,204
2018-05-15T03:31:44.554Z,212
2018-05-15T03:32:10.726Z,224
2018-05-15T03:32:36.859Z,228
2018-05-15T03:33:02.992Z,236
2018-05-15T03:33:29.159Z,252
2018-05-15T03:33:55.323Z,260
2018-05-15T03:34:21.463Z,268
2018-05-15T03:34:47.598Z,280
2018-05-15T03:35:13.744Z,292
2018-05-15T03:35:39.874Z,304
2018-05-15T03:36:06.017Z,316
2018-05-15T03:36:32.160Z,328
2018-05-15T03:36:58.299Z,336
2018-05-15T03:37:24.438Z,352
2018-05-15T03:37:50.579Z,360
2018-05-15T03:38:16.717Z,372
2018-05-15T03:38:42.857Z,388
2018-05-15T03:39:08.998Z,400
2018-05-15T03:39:35.137Z,412
2018-05-15T03:40:01.278Z,424
2018-05-15T03:40:27.464Z,440
2018-05-15T03:40:53.640Z,456
2018-05-15T03:41:19.778Z,468
2018-05-15T03:41:45.919Z,484
2018-05-15T03:42:12.058Z,500
2018-05-15T03:42:38.201Z,516
2018-05-15T03:43:04.362Z,528
2018-05-15T03:43:30.505Z,544
2018-05-15T03:43:56.662Z,560
2018-05-15T03:44:22.824Z,576
2018-05-15T03:44:48.964Z,596
2018-05-15T03:45:15.095Z,612
2018-05-15T03:45:41.241Z,632
2018-05-15T03:46:07.382Z,648
2018-05-15T03:46:33.519Z,668
2018-05-15T03:46:59.656Z,684
2018-05-15T03:47:25.795Z,704
2018-05-15T03:47:51.934Z,724
2018-05-15T03:48:18.072Z,740
2018-05-15T03:48:44.206Z,764
2018-05-15T03:49:10.356Z,780
2018-05-15T03:49:36.489Z,800
2018-05-15T03:50:02.631Z,824
2018-05-15T03:50:28.766Z,844
2018-05-15T03:50:54.905Z,864
2018-05-15T03:51:21.045Z,884
2018-05-15T03:51:47.185Z,904
2018-05-15T03:52:13.330Z,924
2018-05-15T03:52:39.468Z,948
2018-05-15T03:53:05.633Z,972
2018-05-15T03:53:31.776Z,992
2018-05-15T03:53:57.910Z,1016
2018-05-15T03:54:24.052Z,1040
2018-05-15T03:54:50.217Z,1064
2018-05-15T03:55:16.382Z,1084
2018-05-15T03:55:42.515Z,1108
2018-05-15T03:56:08.656Z,1132
2018-05-15T03:56:34.814Z,1156
2018-05-15T03:57:01.005Z,1180
2018-05-15T03:57:27.171Z,1208
2018-05-15T03:57:53.313Z,1228
2018-05-15T03:58:19.450Z,1256
2018-05-15T03:58:45.595Z,1280
2018-05-15T03:59:11.731Z,1304
2018-05-15T03:59:37.870Z,1332
2018-05-15T04:00:04.011Z,1356
2018-05-15T04:00:30.150Z,1380
2018-05-15T04:00:56.296Z,1404
2018-05-15T04:01:22.470Z,1428
2018-05-15T04:01:48.626Z,1452
2018-05-15T04:02:14.855Z,1480
2018-05-15T04:02:40.956Z,1504
2018-05-15T04:03:07.089Z,1532
2018-05-15T04:03:33.229Z,1556
2018-05-15T04:03:59.374Z,1580
2018-05-15T04:04:25.538Z,1608
2018-05-15T04:04:51.677Z,1636
2018-05-15T04:05:17.819Z,1660
2018-05-15T04:05:43.953Z,1684
2018-05-15T04:06:10.093Z,1712
2018-05-15T04:06:36.235Z,1736
2018-05-15T04:07:02.386Z,1764
2018-05-15T04:07:28.558Z,1788
2018-05-15T04:07:54.699Z,1812
2018-05-15T04:08:20.857Z,1840
2018-05-15T04:08:47.091Z,1864
2018-05-15T04:09:13.141Z,1892
2018-05-15T04:09:39.279Z,1920
2018-05-15T04:10:05.433Z,1944
2018-05-15T04:10:31.568Z,1972
2018-05-15T04:10:57.836Z,1996
2018-05-15T04:11:23.874Z,2028
2018-05-15T04:11:50.039Z,2052
2018-05-15T04:12:16.170Z,2080
2018-05-15T04:12:42.311Z,2108
2018-05-15T04:13:08.470Z,2132
2018-05-15T04:13:34.613Z,2156
2018-05-15T04:14:00.772Z,2188
2018-05-15T04:14:26.937Z,2212
2018-05-15T04:14:53.074Z,2236
2018-05-15T04:15:19.212Z,2264
2018-05-15T04:15:45.375Z,2288
2018-05-15T04:16:11.516Z,2312
2018-05-15T04:16:37.651Z,2336
2018-05-15T04:17:03.797Z,2360
2018-05-15T04:17:29.959Z,2384
2018-05-15T04:17:56.100Z,2412
2018-05-15T04:18:22.263Z,2432
2018-05-15T04:18:48.400Z,2456
2018-05-15T04:19:14.559Z,2484
2018-05-15T04:19:40.703Z,2508
2018-05-15T04:20:06.835Z,2528
2018-05-15T04:20:33.001Z,2556
2018-05-15T04:20:59.135Z,2580
2018-05-15T04:21:25.310Z,2604
2018-05-15T04:21:51.452Z,2628
2018-05-15T04:22:17.615Z,2648
2018-05-15T04:22:43.757Z,2672
2018-05-15T04:23:09.928Z,2700
2018-05-15T04:23:36.069Z,2724
2018-05-15T04:24:02.206Z,2748
2018-05-15T04:24:28.348Z,2776
2018-05-15T04:24:54.483Z,2800
2018-05-15T04:25:20.626Z,2828
2018-05-15T04:25:46.764Z,2856
2018-05-15T04:26:12.911Z,2880
2018-05-15T04:26:39.066Z,2908
2018-05-15T04:27:05.213Z,2936
2018-05-15T04:27:31.348Z,2960
2018-05-15T04:27:57.517Z,2988
2018-05-15T04:28:23.756Z,3016
2018-05-15T04:28:49.812Z,3048
2018-05-15T04:29:15.988Z,3076
2018-05-15T04:29:42.125Z,3104
2018-05-15T04:30:08.293Z,3136
2018-05-15T04:30:34.421Z,3164
2018-05-15T04:31:00.562Z,3200
2018-05-15T04:31:26.703Z,3228
2018-05-15T04:31:52.842Z,3260
2018-05-15T04:32:18.980Z,3288
2018-05-15T04:32:45.119Z,3320
2018-05-15T04:33:11.262Z,3348
2018-05-15T04:33:37.403Z,3376
2018-05-15T04:34:03.539Z,3404
2018-05-15T04:34:29.679Z,3436
2018-05-15T04:34:55.912Z,3460
2018-05-15T04:35:22.209Z,3488
2018-05-15T04:35:48.229Z,3516
2018-05-15T04:36:14.363Z,3544
2018-05-15T04:36:40.537Z,3572
2018-05-15T04:37:06.707Z,3604
2018-05-15T04:37:32.875Z,3632
2018-05-15T04:37:59.016Z,3664
2018-05-15T04:38:25.153Z,3692
2018-05-15T04:38:51.293Z,3720
2018-05-15T04:39:17.433Z,3748
2018-05-15T04:39:43.567Z,3776
2018-05-15T04:40:09.709Z,3808
2018-05-15T04:40:35.849Z,3840
2018-05-15T04:41:01.989Z,3864
2018-05-15T04:41:28.127Z,3892
2018-05-15T04:41:54.272Z,3920
2018-05-15T04:42:20.413Z,3952
2018-05-15T04:42:46.557Z,3972
2018-05-15T04:43:12.694Z,4004
2018-05-15T04:43:39.008Z,4032
2018-05-15T04:44:05.022Z,4060
2018-05-15T04:44:31.160Z,4092
2018-05-15T04:44:57.305Z,4128
2018-05-15T04:45:23.469Z,4160
2018-05-15T04:45:49.610Z,4196
2018-05-15T04:46:15.756Z,4228
2018-05-15T04:46:41.916Z,4264
2018-05-15T04:47:08.078Z,4296
2018-05-15T04:47:34.218Z,4328
2018-05-15T04:48:00.380Z,4364
2018-05-15T04:48:26.518Z,4400
2018-05-15T04:48:52.660Z,4432
2018-05-15T04:49:18.813Z,4468
2018-05-15T04:49:44.978Z,4504
2018-05-15T04:50:11.134Z,4540
2018-05-15T04:50:37.279Z,4576
2018-05-15T04:51:03.440Z,4604
2018-05-15T04:51:29.572Z,4628
2018-05-15T04:51:55.711Z,4656
2018-05-15T04:52:21.857Z,4680
2018-05-15T04:52:47.995Z,4704
2018-05-15T04:53:14.139Z,4724
2018-05-15T04:53:40.278Z,4748
2018-05-15T04:54:06.420Z,4768
2018-05-15T04:54:32.559Z,4788
2018-05-15T04:54:58.715Z,4804
2018-05-15T04:55:24.855Z,4824
2018-05-15T04:55:51.043Z,4844
2018-05-15T04:56:17.179Z,4864
2018-05-15T04:56:43.315Z,4880
2018-05-15T04:57:09.452Z,4904
2018-05-15T04:57:35.588Z,4928
2018-05-15T04:58:01.730Z,4944
2018-05-15T04:58:27.895Z,4972
2018-05-15T04:58:54.031Z,4996
2018-05-15T04:59:20.199Z,5012
2018-05-15T04:59:46.344Z,5036
2018-05-15T05:00:12.506Z,5052
2018-05-15T05:00:38.649Z,5072
2018-05-15T05:01:04.819Z,5096
2018-05-15T05:01:30.954Z,5108
2018-05-15T05:01:57.182Z,5128
2018-05-15T05:02:23.249Z,5148
2018-05-15T05:02:49.400Z,5176
2018-05-15T05:03:15.537Z,5192
2018-05-15T05:03:41.675Z,5216
2018-05-15T05:04:07.848Z,5252
2018-05-15T05:04:33.987Z,5272
2018-05-15T05:05:00.123Z,5296
2018-05-15T05:05:26.260Z,5320
2018-05-15T05:05:52.408Z,5348
2018-05-15T05:06:18.548Z,5372
2018-05-15T05:06:44.695Z,5396
2018-05-15T05:07:10.860Z,5420
2018-05-15T05:07:36.994Z,5440
2018-05-15T05:08:03.126Z,5464
2018-05-15T05:08:29.265Z,5484
2018-05-15T05:08:55.409Z,5508
2018-05-15T05:09:21.575Z,5528
2018-05-15T05:09:47.717Z,5552
2018-05-15T05:10:13.882Z,5576
2018-05-15T05:10:40.036Z,5604
2018-05-15T05:11:06.171Z,5632
2018-05-15T05:11:32.311Z,5656
2018-05-15T05:11:58.451Z,5680
2018-05-15T05:12:24.589Z,5712
2018-05-15T05:12:50.760Z,5736
2018-05-15T05:13:16.925Z,5760
2018-05-15T05:13:43.061Z,5792
2018-05-15T05:14:09.207Z,5820
2018-05-15T05:14:35.344Z,5852
2018-05-15T05:15:01.509Z,5880
2018-05-15T05:15:27.673Z,5916
2018-05-15T05:15:53.818Z,5940
2018-05-15T05:16:19.953Z,5956
2018-05-15T05:16:46.123Z,5980
2018-05-15T05:17:12.308Z,6000
2018-05-15T05:17:38.442Z,6020
2018-05-15T05:18:04.586Z,6036
2018-05-15T05:18:30.757Z,6052
2018-05-15T05:18:56.893Z,6068
2018-05-15T05:19:23.035Z,6088
2018-05-15T05:19:49.178Z,6100
2018-05-15T05:20:15.325Z,6116
2018-05-15T05:20:41.456Z,6136
2018-05-15T05:21:07.636Z,6152
2018-05-15T05:21:33.808Z,6176
2018-05-15T05:21:59.944Z,6204
2018-05-15T05:22:26.106Z,6228
2018-05-15T05:22:52.250Z,6256
2018-05-15T05:23:18.398Z,6284
2018-05-15T05:23:44.562Z,6308
2018-05-15T05:24:11.589Z,6328
2018-05-15T05:24:38.112Z,6352
2018-05-15T05:25:04.305Z,6368
2018-05-15T05:25:30.480Z,6392
2018-05-15T05:25:56.667Z,6420
2018-05-15T05:26:22.805Z,6448
2018-05-15T05:26:48.947Z,6476
2018-05-15T05:27:15.151Z,6504
2018-05-15T05:27:41.232Z,6536
2018-05-15T05:28:07.366Z,6564
2018-05-15T05:28:33.510Z,6596
2018-05-15T05:28:59.666Z,6620
2018-05-15T05:29:25.831Z,6648
2018-05-15T05:29:52.081Z,6676
2018-05-15T05:30:18.243Z,6708
2018-05-15T05:30:44.412Z,6736
2018-05-15T05:31:10.575Z,6768
2018-05-15T05:31:36.715Z,6796
2018-05-15T05:32:02.860Z,6824
2018-05-15T05:32:29.002Z,6836
2018-05-15T05:32:55.141Z,6852
2018-05-15T05:33:21.371Z,6864
2018-05-15T05:33:47.536Z,6880
2018-05-15T05:34:13.682Z,6900
2018-05-15T05:34:39.819Z,6916
2018-05-15T05:35:05.956Z,6936
2018-05-15T05:35:32.097Z,6956
2018-05-15T05:35:58.246Z,6972
2018-05-15T05:36:24.402Z,6988
2018-05-15T05:36:50.548Z,7004
2018-05-15T05:37:16.683Z,7020
2018-05-15T05:37:42.913Z,7044
2018-05-15T05:38:09.096Z,7060
2018-05-15T05:38:35.275Z,7084
2018-05-15T05:39:01.549Z,7104
2018-05-15T05:39:27.815Z,7124
2018-05-15T05:39:54.029Z,7148
2018-05-15T05:40:20.227Z,7176
2018-05-15T05:40:46.412Z,7200
2018-05-15T05:41:12.623Z,7220
2018-05-15T05:41:38.816Z,7240
2018-05-15T05:42:05.055Z,7252
2018-05-15T05:42:31.271Z,7268
2018-05-15T05:42:57.498Z,7280
2018-05-15T05:43:23.639Z,7288
2018-05-15T05:43:49.816Z,7308
2018-05-15T05:44:16.037Z,7320
2018-05-15T05:44:42.218Z,7332
2018-05-15T05:45:08.430Z,7352
2018-05-15T05:45:34.663Z,7384
2018-05-15T05:46:00.837Z,7416
2018-05-15T05:46:27.010Z,7444
2018-05-15T05:46:53.143Z,7484
2018-05-15T05:47:19.301Z,7520
2018-05-15T05:47:45.456Z,7552
2018-05-15T05:48:11.664Z,7576
2018-05-15T05:48:37.802Z,7596
2018-05-15T05:49:03.935Z,7616
2018-05-15T05:49:30.081Z,7628
2018-05-15T05:49:56.216Z,7640
2018-05-15T05:50:22.386Z,7656
2018-05-15T05:50:48.531Z,7672
2018-05-15T05:51:14.672Z,7688
2018-05-15T05:51:40.813Z,7692
2018-05-15T05:52:07.005Z,7712
2018-05-15T05:52:33.154Z,7736
2018-05-15T05:52:59.260Z,7764
2018-05-15T05:53:25.399Z,7784
2018-05-15T05:53:51.535Z,7804
2018-05-15T05:54:17.680Z,7824
2018-05-15T05:54:43.818Z,7832
2018-05-15T05:55:09.958Z,7844
2018-05-15T05:55:36.125Z,7856
2018-05-15T05:56:02.267Z,7864
2018-05-15T05:56:28.405Z,7872
2018-05-15T05:56:54.571Z,7876
2018-05-15T05:57:20.709Z,7876
2018-05-15T05:57:46.860Z,7892
2018-05-15T05:58:12.996Z,7904
2018-05-15T05:58:39.162Z,7916
2018-05-15T05:59:05.302Z,7928
2018-05-15T05:59:31.444Z,7944
2018-05-15T05:59:57.584Z,7964
2018-05-15T06:00:23.729Z,7992
2018-05-15T06:00:49.867Z,8012
2018-05-15T06:01:16.007Z,8032
2018-05-15T06:01:42.149Z,8048
2018-05-15T06:02:08.317Z,8056
2018-05-15T06:02:34.458Z,8064
2018-05-15T06:03:00.597Z,8080
2018-05-15T06:03:26.737Z,8092
2018-05-15T06:03:52.883Z,8108
2018-05-15T06:04:19.011Z,8128
2018-05-15T06:04:45.202Z,8160
2018-05-15T06:05:11.338Z,8188
2018-05-15T06:05:37.521Z,8216
2018-05-15T06:06:03.616Z,8244
2018-05-15T06:06:29.776Z,8276
2018-05-15T06:06:55.915Z,8296
2018-05-15T06:07:23.163Z,8328
2018-05-15T06:07:49.220Z,8356
2018-05-15T06:08:15.412Z,8396
2018-05-15T06:08:41.534Z,8428
2018-05-15T06:09:07.682Z,8464